Time;durP1;ratioP1;P1;durP2;ratioP2;P2;SDS_P1;SDS_P2;PMS_P1;PMS_P2;Temp;Humidity;BMP_temperature;BMP_pressure;BME280_temperature;BME280_humidity;BME280_pressure;Samples;Min_cycle;Max_cycle;Signal;HPM_P1;HPM_P2
2023/08/04 00:00:07;;;;;;;2.20;1.30;;;;;;;16.54;95.29;97590.91;4136147;28;20663;-73
2023/08/04 00:02:10;;;;;;;2.70;1.30;;;;;;;16.54;94.53;97598.00;4137659;28;20642;-74
2023/08/04 00:04:13;;;;;;;2.77;1.23;;;;;;;16.51;94.94;97593.03;4143361;28;20739;-75
2023/08/04 00:06:16;;;;;;;1.93;1.23;;;;;;;16.48;95.01;97601.22;4138994;28;20686;-74
2023/08/04 00:08:20;;;;;;;3.20;1.47;;;;;;;16.43;96.20;97595.56;4134713;28;20641;-74
2023/08/04 00:10:23;;;;;;;2.60;1.43;;;;;;;16.40;94.74;97598.50;4152888;28;20627;-73
2023/08/04 00:12:27;;;;;;;3.63;1.33;;;;;;;16.41;95.92;97605.44;4135580;28;20757;-72
2023/08/04 00:14:31;;;;;;;1.80;1.20;;;;;;;16.42;94.93;97606.25;4119598;28;20647;-73
2023/08/04 00:16:34;;;;;;;2.80;1.40;;;;;;;16.42;96.43;97601.00;4155514;28;21073;-73
2023/08/04 00:18:37;;;;;;;2.10;1.30;;;;;;;16.43;95.28;97595.56;4139148;28;20730;-74
2023/08/04 00:20:41;;;;;;;2.83;1.30;;;;;;;16.43;95.54;97602.66;4142898;28;20626;-82
2023/08/04 00:22:44;;;;;;;2.83;1.30;;;;;;;16.37;95.48;97601.44;4152816;28;20642;-82
2023/08/04 00:24:47;;;;;;;4.17;1.27;;;;;;;16.31;94.45;97601.25;4124124;28;20682;-82
2023/08/04 00:26:50;;;;;;;2.60;1.27;;;;;;;16.28;96.63;97604.16;4134958;28;20678;-81
2023/08/04 00:28:53;;;;;;;3.17;1.53;;;;;;;16.25;96.22;97607.09;4153724;28;21244;-81
2023/08/04 00:30:58;;;;;;;2.43;1.20;;;;;;;16.25;95.12;97601.84;4154382;28;21279;-82
2023/08/04 00:33:01;;;;;;;2.00;1.23;;;;;;;16.24;94.81;97602.84;4156244;28;20754;-82
2023/08/04 00:35:05;;;;;;;1.63;1.10;;;;;;;16.19;96.39;97594.53;4140335;28;20646;-82
2023/08/04 00:37:08;;;;;;;2.10;1.17;;;;;;;16.14;96.11;97594.16;4156257;28;21068;-84
2023/08/04 00:39:12;;;;;;;2.40;1.37;;;;;;;16.13;96.41;97589.84;4119134;28;21270;-83
2023/08/04 00:41:15;;;;;;;1.90;1.20;;;;;;;16.10;97.37;97587.53;4136358;28;21200;-81
2023/08/04 00:43:17;;;;;;;2.90;1.33;;;;;;;16.10;95.80;97582.25;4138481;28;21228;-82
2023/08/04 00:45:20;;;;;;;4.13;1.70;;;;;;;16.10;97.08;97587.53;4136236;28;21296;-80
2023/08/04 00:47:25;;;;;;;3.80;1.60;;;;;;;16.10;96.06;97587.53;4156692;28;20654;-81
2023/08/04 00:49:28;;;;;;;3.27;1.37;;;;;;;16.11;95.32;97584.75;4141962;28;20669;-82
2023/08/04 00:51:32;;;;;;;2.20;1.40;;;;;;;16.10;96.66;97596.28;4142204;28;21099;-82
2023/08/04 00:53:36;;;;;;;2.30;1.37;;;;;;;16.10;95.75;97603.31;4139867;28;21123;-82
2023/08/04 00:55:41;;;;;;;3.50;1.60;;;;;;;16.07;97.57;97599.19;4154073;28;20627;-81
2023/08/04 00:57:45;;;;;;;1.70;1.13;;;;;;;16.05;95.57;97605.56;4155934;28;20686;-82
2023/08/04 00:59:48;;;;;;;3.50;1.30;;;;;;;16.05;96.39;97610.84;4138393;28;20650;-81
2023/08/04 01:01:51;;;;;;;2.40;1.30;;;;;;;16.03;96.28;97608.34;4139734;28;20626;-82
2023/08/04 01:03:56;;;;;;;2.17;1.30;;;;;;;16.04;96.14;97623.19;4154681;28;20658;-80
2023/08/04 01:06:05;;;;;;;3.10;1.40;;;;;;;16.04;96.41;97617.06;4139324;28;20630;-82
2023/08/04 01:08:11;;;;;;;2.90;2.13;;;;;;;16.08;98.77;97621.06;4153436;28;20642;-82
2023/08/04 01:10:20;;;;;;;2.43;1.50;;;;;;;16.10;99.01;97619.09;4138410;28;20680;-82
2023/08/04 01:12:26;;;;;;;2.10;1.73;;;;;;;16.09;98.68;97628.00;4138020;28;20634;-82
2023/08/04 01:14:29;;;;;;;2.60;1.57;;;;;;;16.08;98.41;97611.34;4137821;28;20617;-82
2023/08/04 01:16:32;;;;;;;2.40;1.80;;;;;;;16.09;97.22;97625.34;4157093;28;20634;-82
2023/08/04 01:18:35;;;;;;;2.30;1.70;;;;;;;16.09;98.48;97625.34;4121745;28;20642;-82
2023/08/04 01:20:40;;;;;;;2.87;1.70;;;;;;;16.09;97.76;97620.09;4145296;28;20661;-82
2023/08/04 01:22:45;;;;;;;2.77;2.10;;;;;;;16.11;98.86;97624.22;4134196;28;20647;-81
2023/08/04 01:24:47;;;;;;;3.10;1.87;;;;;;;16.09;98.84;97620.09;4137729;28;21049;-81
2023/08/04 01:26:51;;;;;;;2.50;1.97;;;;;;;16.06;99.03;97608.06;4151342;28;20721;-79
2023/08/04 01:28:54;;;;;;;2.30;1.30;;;;;;;16.03;97.33;97608.34;4136540;28;20632;-82
2023/08/04 01:30:58;;;;;;;4.30;1.40;;;;;;;15.98;97.75;97612.41;4152517;28;20639;-73
2023/08/04 01:33:01;;;;;;;2.63;1.50;;;;;;;15.92;97.68;97610.41;4138633;28;20622;-74
2023/08/04 01:35:06;;;;;;;3.00;1.33;;;;;;;15.92;97.35;97610.41;4153349;28;20702;-73
2023/08/04 01:37:09;;;;;;;1.90;1.00;;;;;;;15.88;96.19;97614.28;4144341;28;20818;-73
2023/08/04 01:39:14;;;;;;;2.40;1.00;;;;;;;15.85;96.45;97611.13;4125657;28;20713;-74
2023/08/04 01:41:17;;;;;;;2.50;1.37;;;;;;;15.82;97.17;97611.44;4138824;28;20665;-73
2023/08/04 01:43:20;;;;;;;1.70;1.30;;;;;;;15.81;97.76;97601.88;4155023;28;20726;-74
2023/08/04 01:45:24;;;;;;;1.90;1.27;;;;;;;15.83;97.09;97610.44;4157339;28;20615;-73
2023/08/04 01:47:27;;;;;;;2.73;1.50;;;;;;;15.85;96.67;97603.25;4151541;28;20644;-73
2023/08/04 01:49:30;;;;;;;2.47;1.70;;;;;;;15.85;98.40;97596.19;4139729;28;20637;-74
2023/08/04 01:51:33;;;;;;;1.97;1.30;;;;;;;15.89;97.59;97599.31;4147489;28;20683;-73
2023/08/04 01:53:36;;;;;;;3.17;1.47;;;;;;;15.88;97.94;97595.88;4152043;28;20642;-75
2023/08/04 01:55:41;;;;;;;2.70;1.50;;;;;;;15.87;99.09;97591.59;4153837;28;20994;-73
2023/08/04 01:57:44;;;;;;;2.00;1.50;;;;;;;15.87;98.95;97604.72;4143103;28;20630;-74
2023/08/04 01:59:47;;;;;;;4.80;1.57;;;;;;;15.87;97.94;97596.84;4155259;28;20605;-72
2023/08/04 02:01:49;;;;;;;2.40;1.40;;;;;;;15.85;98.30;97600.63;4128424;28;20718;-75
2023/08/04 02:03:52;;;;;;;1.80;1.40;;;;;;;15.86;99.49;97599.63;4133732;28;21271;-73
2023/08/04 02:05:56;;;;;;;3.00;1.90;;;;;;;15.83;97.61;97595.50;4135353;28;20698;-73
2023/08/04 02:07:59;;;;;;;2.70;1.60;;;;;;;15.81;100.00;97601.88;4142635;28;20626;-73
2023/08/04 02:10:05;;;;;;;4.20;1.80;;;;;;;15.80;97.74;97601.06;4142348;28;20728;-73
2023/08/04 02:12:09;;;;;;;4.57;2.10;;;;;;;15.80;98.16;97611.59;4143667;28;20634;-73
2023/08/04 02:14:12;;;;;;;3.93;2.03;;;;;;;15.78;100.00;97603.00;4142004;28;21232;-73
2023/08/04 02:16:15;;;;;;;7.53;2.20;;;;;;;15.77;98.30;97606.63;4158940;28;20622;-74
2023/08/04 02:18:19;;;;;;;2.07;1.60;;;;;;;15.76;98.87;97602.31;4155777;28;20631;-75
2023/08/04 02:20:22;;;;;;;2.83;1.70;;;;;;;15.74;98.88;97608.69;4136846;28;20784;-74
2023/08/04 02:22:25;;;;;;;2.67;1.70;;;;;;;15.75;99.01;97607.72;4156715;28;20634;-73
2023/08/04 02:24:29;;;;;;;2.60;2.03;;;;;;;15.74;97.97;97611.31;4131065;28;20650;-73
2023/08/04 02:26:32;;;;;;;2.17;1.53;;;;;;;15.72;98.25;97606.22;4158199;28;20633;-73
2023/08/04 02:28:37;;;;;;;2.30;1.90;;;;;;;15.70;98.84;97599.47;4155709;28;20672;-73
2023/08/04 02:30:40;;;;;;;3.60;2.57;;;;;;;15.68;99.30;97604.88;4145284;28;21589;-74
2023/08/04 02:32:43;;;;;;;3.00;1.87;;;;;;;15.65;97.59;97599.06;4140787;28;20644;-74
2023/08/04 02:34:45;;;;;;;3.20;2.37;;;;;;;15.68;98.34;97606.66;4139766;28;20630;-74
2023/08/04 02:36:48;;;;;;;4.53;2.23;;;;;;;15.68;99.61;97607.50;4153421;28;20656;-74
2023/08/04 02:38:50;;;;;;;4.30;2.50;;;;;;;15.69;97.60;97606.50;4144564;28;20623;-75
2023/08/04 02:40:54;;;;;;;6.83;2.50;;;;;;;15.68;98.92;97612.75;4134586;28;20669;-73
2023/08/04 02:42:56;;;;;;;2.87;1.90;;;;;;;15.68;98.71;97611.91;4157883;28;20622;-73
2023/08/04 02:45:00;;;;;;;3.90;2.40;;;;;;;15.64;97.96;97616.66;4139237;28;20622;-73
2023/08/04 02:47:05;;;;;;;5.80;2.67;;;;;;;15.61;97.87;97606.44;4141862;28;20659;-75
2023/08/04 02:49:08;;;;;;;2.90;2.13;;;;;;;15.60;99.28;97620.53;4125578;28;20620;-75
2023/08/04 02:51:12;;;;;;;3.67;2.30;;;;;;;15.61;98.82;97616.94;4141470;28;21403;-74
2023/08/04 02:53:15;;;;;;;4.87;2.60;;;;;;;15.61;98.23;97621.38;4125147;28;20690;-74
2023/08/04 02:55:18;;;;;;;4.53;2.50;;;;;;;15.64;98.82;97618.47;4143181;28;20672;-75
2023/08/04 02:57:21;;;;;;;3.93;2.30;;;;;;;15.67;99.34;97618.16;4143876;28;20632;-74
2023/08/04 02:59:25;;;;;;;4.07;2.10;;;;;;;15.69;99.19;97617.03;4141490;28;20618;-75
2023/08/04 03:01:29;;;;;;;3.17;2.50;;;;;;;15.70;99.55;97621.31;4153983;28;20692;-74
2023/08/04 03:03:31;;;;;;;5.43;2.40;;;;;;;15.69;100.00;97622.28;4141987;28;21028;-74
2023/08/04 03:05:35;;;;;;;3.00;2.17;;;;;;;15.68;99.40;97623.28;4156061;28;20629;-73
2023/08/04 03:07:38;;;;;;;3.07;2.37;;;;;;;15.68;100.00;97620.66;4137459;28;20654;-74
2023/08/04 03:09:42;;;;;;;2.90;2.20;;;;;;;15.67;100.00;97618.97;4156285;28;20622;-74
2023/08/04 03:11:45;;;;;;;4.27;2.40;;;;;;;15.67;100.00;97621.63;4153954;28;20633;-74
2023/08/04 03:13:48;;;;;;;3.60;2.23;;;;;;;15.69;100.00;97630.19;4123105;28;20626;-73
2023/08/04 03:15:56;;;;;;;3.73;2.30;;;;;;;15.72;100.00;97635.13;4152386;28;21033;-74
2023/08/04 03:18:00;;;;;;;3.10;2.30;;;;;;;15.75;100.00;97634.84;4142099;28;20633;-74
2023/08/04 03:20:04;;;;;;;2.60;2.20;;;;;;;15.76;99.88;97639.13;4144595;28;21147;-74
2023/08/04 03:22:07;;;;;;;4.57;2.23;;;;;;;15.77;100.00;97635.53;4143038;28;20667;-73
2023/08/04 03:24:10;;;;;;;2.73;2.10;;;;;;;15.76;100.00;97630.44;4156693;28;20667;-74
2023/08/04 03:26:13;;;;;;;2.93;1.90;;;;;;;15.74;100.00;97638.47;4153855;28;20645;-74
2023/08/04 03:28:16;;;;;;;2.70;2.10;;;;;;;15.75;100.00;97634.84;4141143;28;20634;-73
2023/08/04 03:30:19;;;;;;;3.43;2.33;;;;;;;15.77;100.00;97638.19;4134445;28;20623;-74
2023/08/04 03:32:22;;;;;;;3.53;2.00;;;;;;;15.77;100.00;97632.91;4140685;28;20678;-73
2023/08/04 03:34:26;;;;;;;5.40;2.20;;;;;;;15.77;100.00;97632.91;4151574;28;20703;-73
2023/08/04 03:36:31;;;;;;;3.10;2.47;;;;;;;15.79;100.00;97633.59;4121778;28;20630;-74
2023/08/04 03:38:33;;;;;;;3.00;2.20;;;;;;;15.79;100.00;97630.13;4152816;28;20668;-73
2023/08/04 03:40:36;;;;;;;3.50;2.40;;;;;;;15.79;100.00;97625.69;4142820;28;20770;-74
2023/08/04 03:42:38;;;;;;;2.77;2.00;;;;;;;15.82;100.00;97629.84;4118157;28;21122;-73
2023/08/04 03:44:42;;;;;;;3.13;2.07;;;;;;;15.83;100.00;97619.19;4133859;28;21415;-73
2023/08/04 03:46:45;;;;;;;2.57;1.90;;;;;;;15.84;100.00;97620.00;4142724;28;20633;-73
2023/08/04 03:48:48;;;;;;;2.97;2.40;;;;;;;15.85;100.00;97630.38;4135718;28;20631;-74
2023/08/04 03:50:52;;;;;;;3.97;2.70;;;;;;;15.84;100.00;97628.69;4154450;28;20630;-81
2023/08/04 03:52:55;;;;;;;3.10;2.30;;;;;;;15.86;100.00;97631.19;4150287;28;20686;-81
2023/08/04 03:54:59;;;;;;;3.63;2.20;;;;;;;15.86;100.00;97626.78;4147075;28;20621;-82
2023/08/04 03:57:02;;;;;;;3.93;2.10;;;;;;;15.86;100.00;97628.56;4141935;28;20739;-81
2023/08/04 03:59:08;;;;;;;3.73;2.07;;;;;;;15.86;100.00;97632.03;4151329;28;21010;-82
2023/08/04 04:01:11;;;;;;;4.27;2.40;;;;;;;15.84;99.91;97628.69;4150587;28;20661;-80
2023/08/04 04:03:14;;;;;;;4.50;2.10;;;;;;;15.84;99.92;97633.16;4140983;28;20698;-82
2023/08/04 04:05:17;;;;;;;3.30;2.10;;;;;;;15.85;100.00;97635.63;4155514;28;20645;-81
2023/08/04 04:07:22;;;;;;;3.00;2.10;;;;;;;15.87;100.00;97636.28;4154561;28;20648;-82
2023/08/04 04:09:25;;;;;;;4.53;2.30;;;;;;;15.88;99.96;97640.59;4148055;28;20724;-80
2023/08/04 04:11:28;;;;;;;4.33;2.33;;;;;;;15.88;100.00;97640.59;4153561;28;20625;-82
2023/08/04 04:13:31;;;;;;;3.67;2.27;;;;;;;15.91;100.00;97639.47;4149000;28;21281;-81
2023/08/04 04:15:33;;;;;;;5.67;2.27;;;;;;;15.93;100.00;97638.34;4126054;28;20634;-82
2023/08/04 04:17:37;;;;;;;4.97;2.80;;;;;;;15.95;100.00;97633.78;4151142;28;21326;-82
2023/08/04 04:19:40;;;;;;;3.30;2.13;;;;;;;15.98;100.00;97640.53;4154423;28;20977;-82
2023/08/04 04:21:44;;;;;;;7.37;5.10;;;;;;;15.99;99.88;97643.00;4144101;28;20661;-82
2023/08/04 04:23:49;;;;;;;10.90;5.50;;;;;;;16.00;100.00;97644.66;4121798;28;20636;-81
2023/08/04 04:25:52;;;;;;;5.03;2.43;;;;;;;16.02;100.00;97657.69;4155951;28;20624;-81
2023/08/04 04:27:55;;;;;;;3.37;2.27;;;;;;;16.04;100.00;97651.25;4156678;28;20674;-82
2023/08/04 04:29:58;;;;;;;3.60;2.60;;;;;;;16.03;100.00;97660.16;4151737;28;20766;-82
2023/08/04 04:32:01;;;;;;;4.60;2.30;;;;;;;16.06;100.00;97657.22;4162833;28;20627;-82
2023/08/04 04:34:04;;;;;;;3.97;2.73;;;;;;;16.06;100.00;97654.59;4165162;28;20704;-83
2023/08/04 04:36:08;;;;;;;3.70;2.50;;;;;;;16.07;100.00;97656.22;4157586;28;20705;-80
2023/08/04 04:38:11;;;;;;;6.33;3.70;;;;;;;16.08;100.00;97653.44;4149406;28;21026;-81
2023/08/04 04:40:15;;;;;;;3.60;2.10;;;;;;;16.08;100.00;97648.19;4136045;28;20633;-79
2023/08/04 04:42:18;;;;;;;3.20;2.30;;;;;;;16.12;100.00;97651.38;4147689;28;21334;-79
2023/08/04 04:44:22;;;;;;;3.70;2.40;;;;;;;16.14;100.00;97663.38;4158190;28;20629;-81
2023/08/04 04:46:25;;;;;;;3.70;2.80;;;;;;;16.15;100.00;97661.59;4165557;28;20979;-82
2023/08/04 04:48:29;;;;;;;5.80;2.60;;;;;;;16.16;100.00;97658.81;4149036;28;20685;-82
2023/08/04 04:50:32;;;;;;;3.37;2.40;;;;;;;16.18;100.00;97661.31;4144484;28;21191;-82
2023/08/04 04:52:37;;;;;;;5.73;2.50;;;;;;;16.23;100.00;97656.44;4163653;28;20646;-82
2023/08/04 04:54:40;;;;;;;3.47;2.03;;;;;;;16.27;100.00;97668.34;4139894;28;20677;-79
2023/08/04 04:56:46;;;;;;;4.17;3.03;;;;;;;16.30;100.00;97658.31;4143811;28;21098;-82
2023/08/04 04:58:49;;;;;;;3.53;2.50;;;;;;;16.31;100.00;97667.88;4157765;28;20629;-83
2023/08/04 05:01:02;;;;;;;3.23;2.23;;;;;;;16.34;100.00;97656.22;4157374;28;20615;-80
2023/08/04 05:03:06;;;;;;;3.67;2.60;;;;;;;16.36;100.00;97664.81;4143900;28;20696;-78
2023/08/04 05:05:10;;;;;;;5.63;2.90;;;;;;;16.38;100.00;97665.47;4149941;28;20698;-81
2023/08/04 05:07:13;;;;;;;3.63;2.20;;;;;;;16.37;100.00;97666.44;4140368;28;20648;-81
2023/08/04 05:09:16;;;;;;;3.70;2.40;;;;;;;16.38;100.00;97666.28;4156922;28;21164;-82
2023/08/04 05:11:19;;;;;;;5.17;2.30;;;;;;;16.43;100.00;97658.75;4157849;28;21201;-81
2023/08/04 05:13:24;;;;;;;4.20;2.63;;;;;;;16.46;100.00;97663.72;4157291;28;20598;-80
2023/08/04 05:15:27;;;;;;;3.50;2.60;;;;;;;16.50;100.00;97665.91;4139095;28;20623;-81
2023/08/04 05:17:30;;;;;;;5.60;2.80;;;;;;;16.57;100.00;97669.59;4155192;28;20660;-82
2023/08/04 05:19:33;;;;;;;4.37;2.60;;;;;;;16.63;99.12;97671.63;4118581;28;20645;-81
2023/08/04 05:21:36;;;;;;;3.10;2.20;;;;;;;16.70;100.00;97677.09;4157130;28;20701;-82
2023/08/04 05:23:38;;;;;;;3.40;2.10;;;;;;;16.75;99.56;97675.69;4156840;28;20630;-81
2023/08/04 05:25:42;;;;;;;3.50;2.30;;;;;;;16.82;99.99;97678.53;4152092;28;20633;-82
2023/08/04 05:27:49;;;;;;;3.70;2.13;;;;;;;16.88;100.00;97670.81;4157809;28;20672;-82
2023/08/04 05:29:54;;;;;;;5.93;2.13;;;;;;;16.91;100.00;97672.34;4156763;28;20764;-82
2023/08/04 05:31:57;;;;;;;3.10;2.30;;;;;;;16.91;98.82;97665.25;4154549;28;20996;-82
2023/08/04 05:34:00;;;;;;;3.23;2.07;;;;;;;16.91;99.24;97667.88;4151333;28;21216;-81
2023/08/04 05:36:04;;;;;;;3.33;2.37;;;;;;;16.94;98.58;97672.84;4156689;28;21055;-80
2023/08/04 05:38:06;;;;;;;3.13;2.03;;;;;;;16.99;98.76;97678.50;4140975;28;21509;-82
2023/08/04 05:40:10;;;;;;;4.93;2.47;;;;;;;17.02;99.33;97675.56;4136571;28;20650;-80
2023/08/04 05:42:14;;;;;;;2.83;2.10;;;;;;;17.07;100.00;97683.81;4154755;28;20694;-82
2023/08/04 05:44:17;;;;;;;3.50;2.20;;;;;;;17.10;99.00;97680.88;4155074;28;21385;-81
2023/08/04 05:46:21;;;;;;;2.60;2.10;;;;;;;17.14;99.39;97688.31;4152783;28;20730;-82
2023/08/04 05:48:25;;;;;;;3.70;2.57;;;;;;;17.18;100.00;97689.66;4135637;28;20625;-82
2023/08/04 05:50:28;;;;;;;3.63;2.00;;;;;;;17.26;100.00;97702.94;4152882;28;20638;-83
2023/08/04 05:52:31;;;;;;;4.20;1.90;;;;;;;17.34;99.76;97700.34;4139745;28;20734;-82
2023/08/04 05:54:34;;;;;;;2.80;2.23;;;;;;;17.42;98.83;97702.19;4130510;28;20752;-81
2023/08/04 05:56:37;;;;;;;3.17;2.67;;;;;;;17.50;98.77;97703.91;4153305;28;20738;-82
2023/08/04 05:58:39;;;;;;;4.30;2.20;;;;;;;17.59;99.36;97702.97;4138609;28;21192;-81
2023/08/04 06:00:43;;;;;;;3.17;1.90;;;;;;;17.71;98.45;97708.78;4148656;28;21037;-80
2023/08/04 06:02:46;;;;;;;2.40;1.73;;;;;;;17.94;97.77;97710.72;4149534;28;20687;-83
2023/08/04 06:04:50;;;;;;;3.07;1.90;;;;;;;18.10;96.84;97708.09;4152733;28;21337;-82
2023/08/04 06:06:53;;;;;;;3.27;1.90;;;;;;;18.18;96.17;97711.66;4149840;28;20643;-79
2023/08/04 06:08:56;;;;;;;2.17;1.70;;;;;;;18.25;95.87;97711.81;4153563;28;21060;-82
2023/08/04 06:10:59;;;;;;;2.73;1.90;;;;;;;18.37;94.70;97710.53;4151496;28;20633;-75
2023/08/04 06:13:03;;;;;;;2.10;1.57;;;;;;;18.57;95.58;97715.38;4156878;28;20644;-74
2023/08/04 06:15:07;;;;;;;3.20;1.40;;;;;;;18.71;94.60;97718.19;4146330;28;20623;-74
2023/08/04 06:17:10;;;;;;;2.60;1.80;;;;;;;18.92;94.66;97713.25;4135275;28;20628;-73
2023/08/04 06:19:14;;;;;;;3.37;2.10;;;;;;;18.98;92.03;97707.31;4151227;28;20642;-75
2023/08/04 06:21:18;;;;;;;4.03;2.13;;;;;;;18.92;90.64;97702.69;4145494;28;21051;-74
2023/08/04 06:23:21;;;;;;;3.40;1.60;;;;;;;18.87;91.27;97705.00;4149975;28;21293;-74
2023/08/04 06:25:24;;;;;;;2.17;1.77;;;;;;;18.85;91.03;97709.59;4155041;28;20630;-73
2023/08/04 06:27:26;;;;;;;2.80;1.70;;;;;;;18.81;92.32;97708.28;4144618;28;20638;-75
2023/08/04 06:29:30;;;;;;;3.17;2.10;;;;;;;18.80;91.16;97711.09;4117969;28;20621;-75
2023/08/04 06:31:33;;;;;;;2.50;2.30;;;;;;;18.76;92.50;97705.31;4133819;28;21281;-74
2023/08/04 06:33:36;;;;;;;2.23;1.60;;;;;;;18.77;92.51;97711.44;4139033;28;20709;-74
2023/08/04 06:35:41;;;;;;;3.57;1.80;;;;;;;18.76;92.74;97704.47;4137897;28;21292;-74
2023/08/04 06:37:44;;;;;;;6.30;1.90;;;;;;;18.81;93.06;97715.38;4159496;28;20625;-73
2023/08/04 06:39:49;;;;;;;3.00;1.50;;;;;;;18.86;93.69;97715.72;4165351;28;20636;-74
2023/08/04 06:41:51;;;;;;;2.57;2.10;;;;;;;18.87;93.07;97720.84;4158786;28;20611;-73
2023/08/04 06:43:54;;;;;;;3.30;1.80;;;;;;;18.91;92.95;97724.81;4156258;28;20715;-74
2023/08/04 06:45:58;;;;;;;2.13;1.70;;;;;;;18.95;93.13;97729.59;4143286;28;21072;-74
2023/08/04 06:48:02;;;;;;;2.43;1.70;;;;;;;19.01;94.00;97720.19;4144545;28;20631;-74
2023/08/04 06:50:06;;;;;;;2.80;2.03;;;;;;;19.04;92.69;97719.91;4138567;28;20633;-73
2023/08/04 06:52:10;;;;;;;1.90;1.40;;;;;;;19.06;92.11;97720.53;4148751;28;20653;-74
2023/08/04 06:54:13;;;;;;;2.23;1.73;;;;;;;19.08;91.36;97726.50;4146714;28;20626;-74
2023/08/04 06:56:16;;;;;;;4.83;2.70;;;;;;;19.09;92.26;97729.00;4132636;28;20640;-74
2023/08/04 06:58:19;;;;;;;4.30;2.03;;;;;;;19.14;91.99;97723.19;4143540;28;20823;-74
2023/08/04 07:00:23;;;;;;;4.77;1.70;;;;;;;19.15;91.50;97722.19;4128233;28;21069;-75
2023/08/04 07:02:26;;;;;;;2.20;1.40;;;;;;;19.15;90.97;97717.72;4160906;28;20620;-73
2023/08/04 07:04:29;;;;;;;2.77;1.33;;;;;;;19.25;89.94;97722.84;4157332;28;21265;-74
2023/08/04 07:06:32;;;;;;;2.80;1.87;;;;;;;19.38;90.11;97722.16;4143096;28;20636;-74
2023/08/04 07:08:36;;;;;;;2.47;1.60;;;;;;;19.56;90.41;97730.75;4141742;28;20707;-75
2023/08/04 07:10:40;;;;;;;3.23;1.53;;;;;;;19.81;90.83;97726.22;4148833;28;20635;-73
2023/08/04 07:12:43;;;;;;;1.80;1.20;;;;;;;20.13;89.25;97730.44;4152260;28;20673;-75
2023/08/04 07:14:46;;;;;;;2.17;1.40;;;;;;;20.42;88.08;97728.78;4138761;28;20772;-73
2023/08/04 07:16:49;;;;;;;1.97;1.43;;;;;;;20.64;86.21;97730.66;4154799;28;20634;-73
2023/08/04 07:18:52;;;;;;;2.30;1.30;;;;;;;20.88;84.52;97730.50;4158105;28;20631;-75
2023/08/04 07:21:04;;;;;;;3.13;1.30;;;;;;;21.00;83.08;97723.78;4139932;28;20676;-81
2023/08/04 07:23:08;;;;;;;1.90;1.00;;;;;;;21.37;83.68;97737.88;4143057;28;20619;-82
2023/08/04 07:25:13;;;;;;;1.30;0.90;;;;;;;21.73;81.68;97737.06;4141358;28;20634;-82
2023/08/04 07:27:16;;;;;;;3.00;1.53;;;;;;;22.05;80.01;97740.16;4141195;28;20631;-82
2023/08/04 07:29:19;;;;;;;2.13;1.10;;;;;;;22.33;79.02;97742.00;4140243;28;20656;-81
2023/08/04 07:31:23;;;;;;;2.10;1.00;;;;;;;22.74;77.52;97743.09;4142139;28;20640;-81
2023/08/04 07:33:27;;;;;;;1.70;1.13;;;;;;;23.09;75.74;97747.59;4143480;28;20711;-81
2023/08/04 07:35:30;;;;;;;7.30;1.60;;;;;;;23.40;75.59;97756.88;4156644;28;20669;-82
2023/08/04 07:37:33;;;;;;;1.93;1.00;;;;;;;23.36;73.46;97758.28;4161445;28;20639;-82
2023/08/04 07:39:36;;;;;;;1.57;0.80;;;;;;;23.15;73.89;97752.97;4143992;28;20680;-83
2023/08/04 07:41:41;;;;;;;1.43;0.90;;;;;;;23.12;74.31;97749.88;4154052;28;20693;-82
2023/08/04 07:43:45;;;;;;;2.10;1.00;;;;;;;23.04;72.56;97750.00;4152893;28;20777;-82
2023/08/04 07:45:48;;;;;;;1.27;0.80;;;;;;;22.90;73.43;97742.88;4149831;28;20632;-82
2023/08/04 07:47:52;;;;;;;1.73;1.07;;;;;;;22.78;73.34;97742.53;4136530;28;20698;-81
2023/08/04 07:49:55;;;;;;;1.60;0.90;;;;;;;22.79;73.06;97751.34;4144520;28;20740;-82
2023/08/04 07:51:58;;;;;;;2.60;0.90;;;;;;;22.80;73.42;97742.34;4143860;28;21353;-80
2023/08/04 07:54:01;;;;;;;2.57;0.90;;;;;;;23.03;75.60;97743.03;4156304;28;20632;-82
2023/08/04 07:56:05;;;;;;;2.80;1.07;;;;;;;23.26;74.08;97749.81;4153600;28;20642;-81
2023/08/04 07:58:10;;;;;;;1.43;0.80;;;;;;;23.58;74.09;97739.41;4137251;28;20636;-83
2023/08/04 08:00:14;;;;;;;2.10;0.87;;;;;;;23.76;73.74;97750.44;4138991;28;21013;-81
2023/08/04 08:02:17;;;;;;;1.87;1.07;;;;;;;23.72;72.98;97746.50;4155585;28;20701;-82
2023/08/04 08:04:19;;;;;;;3.10;0.80;;;;;;;23.67;71.56;97740.94;4152110;28;20701;-82
2023/08/04 08:06:22;;;;;;;1.60;0.90;;;;;;;23.61;73.81;97747.03;4151219;28;20632;-80
2023/08/04 08:08:26;;;;;;;2.00;0.90;;;;;;;23.42;75.08;97739.69;4136652;28;20638;-82
2023/08/04 08:10:29;;;;;;;1.23;0.70;;;;;;;23.30;73.51;97751.91;4138237;28;20642;-82
2023/08/04 08:12:33;;;;;;;1.53;0.80;;;;;;;23.23;74.26;97743.03;4151691;28;20640;-81
2023/08/04 08:14:37;;;;;;;1.37;0.80;;;;;;;23.20;72.47;97745.25;4136221;28;20649;-81
2023/08/04 08:16:41;;;;;;;2.30;1.00;;;;;;;23.09;72.59;97742.25;4154433;28;20645;-82
2023/08/04 08:18:44;;;;;;;1.40;0.90;;;;;;;23.04;73.06;97739.34;4150947;28;20643;-82
2023/08/04 08:20:47;;;;;;;2.30;0.93;;;;;;;22.95;71.94;97730.66;4133378;28;21037;-82
2023/08/04 08:22:50;;;;;;;2.00;0.70;;;;;;;22.93;72.09;97734.50;4116267;28;20642;-82
2023/08/04 08:24:53;;;;;;;2.67;1.73;;;;;;;22.90;72.49;97727.72;4142495;28;21193;-82
2023/08/04 08:26:56;;;;;;;1.80;1.00;;;;;;;22.95;72.95;97728.00;4152824;28;20653;-83
2023/08/04 08:29:01;;;;;;;1.40;1.00;;;;;;;22.95;71.92;97725.34;4128676;28;20644;-80
2023/08/04 08:31:06;;;;;;;2.33;0.90;;;;;;;23.10;72.61;97727.94;4141393;28;20642;-82
2023/08/04 08:33:09;;;;;;;3.27;0.90;;;;;;;23.08;72.58;97721.97;4149586;28;20641;-82
2023/08/04 08:35:12;;;;;;;1.80;1.10;;;;;;;23.05;72.24;97720.53;4130728;28;20633;-81
2023/08/04 08:37:15;;;;;;;1.47;0.80;;;;;;;23.00;70.27;97724.78;4143071;28;21276;-81
2023/08/04 08:39:20;;;;;;;2.30;1.10;;;;;;;22.97;71.07;97717.16;4142496;28;20652;-82
2023/08/04 08:41:24;;;;;;;1.93;0.87;;;;;;;22.99;73.23;97723.97;4150495;28;20647;-82
2023/08/04 08:43:26;;;;;;;2.20;1.20;;;;;;;23.05;75.26;97725.03;4149268;28;20654;-82
2023/08/04 08:45:30;;;;;;;1.93;0.90;;;;;;;22.98;74.51;97719.63;4134807;28;20772;-82
2023/08/04 08:47:37;;;;;;;3.80;0.93;;;;;;;22.82;74.06;97719.03;4148096;28;20733;-81
2023/08/04 08:49:45;;;;;;;2.70;0.90;;;;;;;22.87;74.56;97725.44;4155150;28;20659;-82
2023/08/04 08:51:51;;;;;;;2.90;0.77;;;;;;;23.01;74.25;97729.09;4136445;28;21295;-82
2023/08/04 08:53:55;;;;;;;1.53;0.83;;;;;;;23.11;74.05;97730.44;4126901;28;20748;-82
2023/08/04 08:56:00;;;;;;;1.93;1.00;;;;;;;23.19;74.35;97731.09;4156160;28;21372;-82
2023/08/04 08:58:03;;;;;;;1.27;0.80;;;;;;;23.30;73.64;97738.59;4157225;28;20637;-82
2023/08/04 09:00:08;;;;;;;2.03;1.00;;;;;;;23.37;72.84;97735.97;4142482;28;21184;-82
2023/08/04 09:02:13;;;;;;;2.33;0.87;;;;;;;23.50;75.03;97744.06;4155702;28;20639;-82
2023/08/04 09:04:17;;;;;;;3.90;0.97;;;;;;;23.64;74.34;97749.34;4158688;28;21577;-82
2023/08/04 09:06:21;;;;;;;2.73;1.10;;;;;;;23.68;72.72;97746.09;4139246;28;20644;-79
2023/08/04 09:08:24;;;;;;;2.00;1.00;;;;;;;23.68;71.03;97753.28;4156543;28;20683;-81
2023/08/04 09:10:26;;;;;;;1.80;1.00;;;;;;;23.74;72.92;97742.66;4156762;28;20736;-82
2023/08/04 09:12:32;;;;;;;1.87;0.87;;;;;;;23.84;71.89;97748.44;4146009;28;20634;-82
2023/08/04 09:14:48;;;;;;;3.70;1.00;;;;;;;23.73;70.51;97737.50;4142980;28;20643;-81
2023/08/04 09:16:51;;;;;;;2.10;0.90;;;;;;;23.77;72.20;97734.25;4150897;28;21241;-81
2023/08/04 09:19:02;;;;;;;1.60;0.90;;;;;;;23.96;74.27;97735.41;4140542;28;20731;-82
2023/08/04 09:21:13;;;;;;;1.50;0.97;;;;;;;24.12;73.02;97735.91;4144287;28;20738;-82
2023/08/04 09:23:15;;;;;;;2.23;0.90;;;;;;;24.06;70.41;97733.22;4140993;28;21203;-79
2023/08/04 09:25:18;;;;;;;1.47;0.93;;;;;;;24.05;71.02;97729.72;4159973;28;20852;-81
2023/08/04 09:27:28;;;;;;;1.87;0.93;;;;;;;24.26;72.38;97734.94;4160085;28;20640;-81
2023/08/04 09:29:32;;;;;;;1.87;1.10;;;;;;;24.33;70.21;97731.31;4146682;28;20739;-81
2023/08/04 09:31:36;;;;;;;1.70;1.00;;;;;;;24.36;71.45;97732.78;4142490;28;20729;-82
2023/08/04 09:33:43;;;;;;;1.60;1.07;;;;;;;24.46;72.53;97735.88;4156774;28;20641;-79
2023/08/04 09:35:47;;;;;;;2.40;1.10;;;;;;;24.50;71.98;97734.47;4127656;28;20957;-81
2023/08/04 09:37:56;;;;;;;2.23;1.03;;;;;;;24.65;72.58;97733.28;4129614;28;20621;-83
2023/08/04 09:39:59;;;;;;;1.97;1.00;;;;;;;24.77;72.44;97739.69;4155362;28;21257;-81